sensor_id;sensor_type;location;lat;lon;timestamp;pressure;altitude;pressure_sealevel;temperature
68952;BMP180;56000;51.146;17.112;2022-12-19T00:02:10;102051.20;;;-7.70
68952;BMP180;56000;51.146;17.112;2022-12-19T00:04:43;102045.40;;;-7.70
68952;BMP180;56000;51.146;17.112;2022-12-19T00:07:16;102050.20;;;-7.70
68952;BMP180;56000;51.146;17.112;2022-12-19T00:09:49;102043.60;;;-7.70
68952;BMP180;56000;51.146;17.112;2022-12-19T00:12:22;102032.60;;;-7.70
68952;BMP180;56000;51.146;17.112;2022-12-19T00:14:55;102039.20;;;-7.70
68952;BMP180;56000;51.146;17.112;2022-12-19T00:17:29;102041.20;;;-7.78
68952;BMP180;56000;51.146;17.112;2022-12-19T00:20:07;102039.20;;;-7.80
68952;BMP180;56000;51.146;17.112;2022-12-19T00:22:41;102038.60;;;-7.80
68952;BMP180;56000;51.146;17.112;2022-12-19T00:25:15;102041.00;;;-7.80
68952;BMP180;56000;51.146;17.112;2022-12-19T00:27:49;102053.80;;;-7.80
68952;BMP180;56000;51.146;17.112;2022-12-19T00:30:22;102050.00;;;-7.80
68952;BMP180;56000;51.146;17.112;2022-12-19T00:32:56;102039.40;;;-7.80
68952;BMP180;56000;51.146;17.112;2022-12-19T00:35:29;102034.00;;;-7.80
68952;BMP180;56000;51.146;17.112;2022-12-19T00:38:02;102040.80;;;-7.80
68952;BMP180;56000;51.146;17.112;2022-12-19T00:40:35;102034.80;;;-7.80
68952;BMP180;56000;51.146;17.112;2022-12-19T00:43:10;102033.80;;;-7.80
68952;BMP180;56000;51.146;17.112;2022-12-19T00:45:45;102028.60;;;-7.88
68952;BMP180;56000;51.146;17.112;2022-12-19T00:48:18;102024.60;;;-7.90
68952;BMP180;56000;51.146;17.112;2022-12-19T00:50:57;102024.20;;;-7.90
68952;BMP180;56000;51.146;17.112;2022-12-19T00:53:30;102025.80;;;-7.90
68952;BMP180;56000;51.146;17.112;2022-12-19T00:56:08;102021.40;;;-7.88
68952;BMP180;56000;51.146;17.112;2022-12-19T00:58:42;102017.40;;;-7.90
68952;BMP180;56000;51.146;17.112;2022-12-19T01:01:19;102020.00;;;-7.90
68952;BMP180;56000;51.146;17.112;2022-12-19T01:03:53;102020.80;;;-7.88
68952;BMP180;56000;51.146;17.112;2022-12-19T01:06:46;102029.20;;;-7.84
68952;BMP180;56000;51.146;17.112;2022-12-19T01:09:20;102024.80;;;-7.80
68952;BMP180;56000;51.146;17.112;2022-12-19T01:11:54;102024.80;;;-7.80
68952;BMP180;56000;51.146;17.112;2022-12-19T01:14:52;102021.60;;;-7.84
68952;BMP180;56000;51.146;17.112;2022-12-19T01:17:35;102027.00;;;-7.82
68952;BMP180;56000;51.146;17.112;2022-12-19T01:20:17;102023.60;;;-7.82
68952;BMP180;56000;51.146;17.112;2022-12-19T01:23:00;102015.60;;;-7.88
68952;BMP180;56000;51.146;17.112;2022-12-19T01:25:35;102011.40;;;-7.84
68952;BMP180;56000;51.146;17.112;2022-12-19T01:28:13;102008.00;;;-7.90
68952;BMP180;56000;51.146;17.112;2022-12-19T01:30:47;102000.40;;;-7.90
68952;BMP180;56000;51.146;17.112;2022-12-19T01:33:21;101996.40;;;-7.90
68952;BMP180;56000;51.146;17.112;2022-12-19T01:35:54;101988.60;;;-7.90
68952;BMP180;56000;51.146;17.112;2022-12-19T01:38:27;101975.60;;;-7.90
68952;BMP180;56000;51.146;17.112;2022-12-19T01:41:00;101968.80;;;-7.98
68952;BMP180;56000;51.146;17.112;2022-12-19T01:43:54;101954.80;;;-8.00
68952;BMP180;56000;51.146;17.112;2022-12-19T01:46:33;101943.40;;;-8.00
68952;BMP180;56000;51.146;17.112;2022-12-19T01:49:13;101938.80;;;-8.00
68952;BMP180;56000;51.146;17.112;2022-12-19T01:51:50;101940.80;;;-8.00
68952;BMP180;56000;51.146;17.112;2022-12-19T01:54:26;101930.80;;;-8.00
68952;BMP180;56000;51.146;17.112;2022-12-19T01:57:07;101915.60;;;-8.00
68952;BMP180;56000;51.146;17.112;2022-12-19T01:59:44;101913.80;;;-8.00
68952;BMP180;56000;51.146;17.112;2022-12-19T02:02:22;101914.60;;;-8.00
68952;BMP180;56000;51.146;17.112;2022-12-19T02:04:56;101909.40;;;-8.00
68952;BMP180;56000;51.146;17.112;2022-12-19T02:07:29;101904.80;;;-8.00
68952;BMP180;56000;51.146;17.112;2022-12-19T02:10:03;101916.80;;;-8.00
68952;BMP180;56000;51.146;17.112;2022-12-19T02:12:40;101918.00;;;-8.00
68952;BMP180;56000;51.146;17.112;2022-12-19T02:15:16;101915.40;;;-8.00
68952;BMP180;56000;51.146;17.112;2022-12-19T02:18:03;101909.20;;;-8.00
68952;BMP180;56000;51.146;17.112;2022-12-19T02:24:21;101888.60;;;-8.00
68952;BMP180;56000;51.146;17.112;2022-12-19T02:27:48;101897.80;;;-8.10
68952;BMP180;56000;51.146;17.112;2022-12-19T02:30:49;101884.80;;;-8.10
68952;BMP180;56000;51.146;17.112;2022-12-19T02:33:33;101882.60;;;-8.10
68952;BMP180;56000;51.146;17.112;2022-12-19T02:36:16;101869.20;;;-8.00
68952;BMP180;56000;51.146;17.112;2022-12-19T02:38:55;101869.20;;;-8.00
68952;BMP180;56000;51.146;17.112;2022-12-19T02:41:34;101878.20;;;-8.00
68952;BMP180;56000;51.146;17.112;2022-12-19T02:44:24;101875.60;;;-7.94
68952;BMP180;56000;51.146;17.112;2022-12-19T02:46:59;101879.20;;;-7.90
68952;BMP180;56000;51.146;17.112;2022-12-19T02:49:37;101857.80;;;-7.90
68952;BMP180;56000;51.146;17.112;2022-12-19T02:52:44;101863.40;;;-7.90
68952;BMP180;56000;51.146;17.112;2022-12-19T02:55:22;101844.40;;;-7.90
68952;BMP180;56000;51.146;17.112;2022-12-19T02:58:33;101827.40;;;-7.90
68952;BMP180;56000;51.146;17.112;2022-12-19T03:01:19;101819.00;;;-7.90
68952;BMP180;56000;51.146;17.112;2022-12-19T03:04:06;101825.60;;;-7.90
68952;BMP180;56000;51.146;17.112;2022-12-19T03:06:48;101838.60;;;-7.90
68952;BMP180;56000;51.146;17.112;2022-12-19T03:09:33;101832.00;;;-7.90
68952;BMP180;56000;51.146;17.112;2022-12-19T03:12:15;101838.60;;;-7.88
68952;BMP180;56000;51.146;17.112;2022-12-19T03:14:51;101822.60;;;-7.80
68952;BMP180;56000;51.146;17.112;2022-12-19T03:17:25;101831.00;;;-7.80
68952;BMP180;56000;51.146;17.112;2022-12-19T03:19:58;101831.20;;;-7.80
68952;BMP180;56000;51.146;17.112;2022-12-19T03:22:31;101825.00;;;-7.80
68952;BMP180;56000;51.146;17.112;2022-12-19T03:25:05;101810.00;;;-7.80
68952;BMP180;56000;51.146;17.112;2022-12-19T03:27:39;101798.80;;;-7.80
68952;BMP180;56000;51.146;17.112;2022-12-19T03:30:14;101790.80;;;-7.80
68952;BMP180;56000;51.146;17.112;2022-12-19T03:32:48;101797.20;;;-7.80
68952;BMP180;56000;51.146;17.112;2022-12-19T03:35:24;101796.80;;;-7.80
68952;BMP180;56000;51.146;17.112;2022-12-19T03:38:01;101801.60;;;-7.80
68952;BMP180;56000;51.146;17.112;2022-12-19T03:40:36;101798.00;;;-7.80
68952;BMP180;56000;51.146;17.112;2022-12-19T03:43:10;101809.40;;;-7.80
68952;BMP180;56000;51.146;17.112;2022-12-19T03:45:51;101817.00;;;-7.80
68952;BMP180;56000;51.146;17.112;2022-12-19T03:48:32;101809.00;;;-7.74
68952;BMP180;56000;51.146;17.112;2022-12-19T03:51:19;101810.00;;;-7.70
68952;BMP180;56000;51.146;17.112;2022-12-19T03:54:02;101796.00;;;-7.70
68952;BMP180;56000;51.146;17.112;2022-12-19T03:56:44;101793.60;;;-7.70
68952;BMP180;56000;51.146;17.112;2022-12-19T03:59:21;101788.00;;;-7.70
68952;BMP180;56000;51.146;17.112;2022-12-19T04:01:57;101781.80;;;-7.68
68952;BMP180;56000;51.146;17.112;2022-12-19T04:04:32;101786.60;;;-7.62
68952;BMP180;56000;51.146;17.112;2022-12-19T04:07:08;101778.20;;;-7.60
68952;BMP180;56000;51.146;17.112;2022-12-19T04:09:43;101771.40;;;-7.60
68952;BMP180;56000;51.146;17.112;2022-12-19T04:12:20;101773.20;;;-7.60
68952;BMP180;56000;51.146;17.112;2022-12-19T04:14:54;101767.80;;;-7.58
68952;BMP180;56000;51.146;17.112;2022-12-19T04:17:32;101763.80;;;-7.50
68952;BMP180;56000;51.146;17.112;2022-12-19T04:20:10;101755.60;;;-7.50
68952;BMP180;56000;51.146;17.112;2022-12-19T04:22:48;101756.20;;;-7.50
68952;BMP180;56000;51.146;17.112;2022-12-19T04:25:27;101757.60;;;-7.48
68952;BMP180;56000;51.146;17.112;2022-12-19T04:28:04;101760.60;;;-7.40
68952;BMP180;56000;51.146;17.112;2022-12-19T04:30:40;101760.40;;;-7.40
68952;BMP180;56000;51.146;17.112;2022-12-19T04:33:14;101759.20;;;-7.40
68952;BMP180;56000;51.146;17.112;2022-12-19T04:35:47;101766.00;;;-7.38
68952;BMP180;56000;51.146;17.112;2022-12-19T04:38:20;101770.40;;;-7.32
68952;BMP180;56000;51.146;17.112;2022-12-19T04:40:53;101766.00;;;-7.30
68952;BMP180;56000;51.146;17.112;2022-12-19T04:43:27;101761.80;;;-7.30
68952;BMP180;56000;51.146;17.112;2022-12-19T04:46:00;101760.00;;;-7.30
68952;BMP180;56000;51.146;17.112;2022-12-19T04:48:35;101758.60;;;-7.30
68952;BMP180;56000;51.146;17.112;2022-12-19T04:51:08;101744.00;;;-7.30
68952;BMP180;56000;51.146;17.112;2022-12-19T04:53:41;101750.00;;;-7.30
68952;BMP180;56000;51.146;17.112;2022-12-19T04:56:16;101744.20;;;-7.30
68952;BMP180;56000;51.146;17.112;2022-12-19T04:58:49;101744.60;;;-7.30
68952;BMP180;56000;51.146;17.112;2022-12-19T05:01:27;101743.60;;;-7.30
68952;BMP180;56000;51.146;17.112;2022-12-19T05:04:01;101733.60;;;-7.30
68952;BMP180;56000;51.146;17.112;2022-12-19T05:06:35;101730.40;;;-7.30
68952;BMP180;56000;51.146;17.112;2022-12-19T05:09:10;101735.60;;;-7.24
68952;BMP180;56000;51.146;17.112;2022-12-19T05:11:43;101729.80;;;-7.20
68952;BMP180;56000;51.146;17.112;2022-12-19T05:14:16;101733.60;;;-7.20
68952;BMP180;56000;51.146;17.112;2022-12-19T05:16:49;101724.80;;;-7.20
68952;BMP180;56000;51.146;17.112;2022-12-19T05:19:30;101734.60;;;-7.20
68952;BMP180;56000;51.146;17.112;2022-12-19T05:22:03;101739.80;;;-7.20
68952;BMP180;56000;51.146;17.112;2022-12-19T05:24:36;101737.00;;;-7.20
68952;BMP180;56000;51.146;17.112;2022-12-19T05:27:09;101739.20;;;-7.20
68952;BMP180;56000;51.146;17.112;2022-12-19T05:29:42;101739.20;;;-7.20
68952;BMP180;56000;51.146;17.112;2022-12-19T05:32:15;101731.40;;;-7.20
68952;BMP180;56000;51.146;17.112;2022-12-19T05:34:48;101729.40;;;-7.20
68952;BMP180;56000;51.146;17.112;2022-12-19T05:37:21;101721.40;;;-7.28
68952;BMP180;56000;51.146;17.112;2022-12-19T05:39:54;101719.60;;;-7.26
68952;BMP180;56000;51.146;17.112;2022-12-19T05:42:28;101716.80;;;-7.30
68952;BMP180;56000;51.146;17.112;2022-12-19T05:45:01;101715.20;;;-7.30
68952;BMP180;56000;51.146;17.112;2022-12-19T05:47:34;101715.00;;;-7.30
68952;BMP180;56000;51.146;17.112;2022-12-19T05:50:10;101714.00;;;-7.30
68952;BMP180;56000;51.146;17.112;2022-12-19T05:52:43;101719.00;;;-7.30
68952;BMP180;56000;51.146;17.112;2022-12-19T05:55:16;101710.00;;;-7.30
68952;BMP180;56000;51.146;17.112;2022-12-19T05:57:49;101711.40;;;-7.30
68952;BMP180;56000;51.146;17.112;2022-12-19T06:00:23;101708.00;;;-7.30
68952;BMP180;56000;51.146;17.112;2022-12-19T06:02:56;101705.20;;;-7.30
68952;BMP180;56000;51.146;17.112;2022-12-19T06:05:30;101706.20;;;-7.30
68952;BMP180;56000;51.146;17.112;2022-12-19T06:08:03;101704.80;;;-7.30
68952;BMP180;56000;51.146;17.112;2022-12-19T06:10:36;101700.40;;;-7.30
68952;BMP180;56000;51.146;17.112;2022-12-19T06:13:09;101701.60;;;-7.30
68952;BMP180;56000;51.146;17.112;2022-12-19T06:15:42;101705.40;;;-7.30
68952;BMP180;56000;51.146;17.112;2022-12-19T06:18:15;101714.20;;;-7.30
68952;BMP180;56000;51.146;17.112;2022-12-19T06:20:57;101715.20;;;-7.30
68952;BMP180;56000;51.146;17.112;2022-12-19T06:23:32;101717.20;;;-7.26
68952;BMP180;56000;51.146;17.112;2022-12-19T06:26:06;101719.20;;;-7.20
68952;BMP180;56000;51.146;17.112;2022-12-19T06:28:44;101712.20;;;-7.20
68952;BMP180;56000;51.146;17.112;2022-12-19T06:31:18;101717.60;;;-7.20
68952;BMP180;56000;51.146;17.112;2022-12-19T06:33:51;101706.40;;;-7.12
68952;BMP180;56000;51.146;17.112;2022-12-19T06:36:26;101695.40;;;-7.10
68952;BMP180;56000;51.146;17.112;2022-12-19T06:38:59;101694.40;;;-7.06
68952;BMP180;56000;51.146;17.112;2022-12-19T06:41:32;101701.60;;;-7.00
68952;BMP180;56000;51.146;17.112;2022-12-19T06:44:23;101708.80;;;-6.92
68952;BMP180;56000;51.146;17.112;2022-12-19T06:46:56;101707.20;;;-6.90
68952;BMP180;56000;51.146;17.112;2022-12-19T06:49:29;101702.20;;;-6.80
68952;BMP180;56000;51.146;17.112;2022-12-19T06:52:02;101707.20;;;-6.80
68952;BMP180;56000;51.146;17.112;2022-12-19T06:54:39;101705.60;;;-6.70
68952;BMP180;56000;51.146;17.112;2022-12-19T06:57:12;101692.60;;;-6.60
68952;BMP180;56000;51.146;17.112;2022-12-19T06:59:45;101690.20;;;-6.60
68952;BMP180;56000;51.146;17.112;2022-12-19T07:02:26;101682.40;;;-6.50
68952;BMP180;56000;51.146;17.112;2022-12-19T07:05:03;101689.80;;;-6.50
68952;BMP180;56000;51.146;17.112;2022-12-19T07:07:38;101690.20;;;-6.46
68952;BMP180;56000;51.146;17.112;2022-12-19T07:10:12;101687.40;;;-6.40
68952;BMP180;56000;51.146;17.112;2022-12-19T07:12:46;101686.40;;;-6.30
68952;BMP180;56000;51.146;17.112;2022-12-19T07:15:19;101684.00;;;-6.30
68952;BMP180;56000;51.146;17.112;2022-12-19T07:17:52;101677.40;;;-6.24
68952;BMP180;56000;51.146;17.112;2022-12-19T07:20:26;101674.20;;;-6.20
68952;BMP180;56000;51.146;17.112;2022-12-19T07:23:00;101664.00;;;-6.20
68952;BMP180;56000;51.146;17.112;2022-12-19T07:25:33;101660.60;;;-6.10
68952;BMP180;56000;51.146;17.112;2022-12-19T07:28:07;101662.60;;;-6.10
68952;BMP180;56000;51.146;17.112;2022-12-19T07:30:40;101650.20;;;-6.00
68952;BMP180;56000;51.146;17.112;2022-12-19T07:33:13;101648.80;;;-6.00
68952;BMP180;56000;51.146;17.112;2022-12-19T07:35:52;101640.00;;;-5.90
68952;BMP180;56000;51.146;17.112;2022-12-19T07:38:25;101634.40;;;-5.80
68952;BMP180;56000;51.146;17.112;2022-12-19T07:41:01;101643.60;;;-5.60
68952;BMP180;56000;51.146;17.112;2022-12-19T07:43:34;101648.80;;;-5.50
68952;BMP180;56000;51.146;17.112;2022-12-19T07:46:07;101660.60;;;-5.40
68952;BMP180;56000;51.146;17.112;2022-12-19T07:48:40;101651.00;;;-5.10
68952;BMP180;56000;51.146;17.112;2022-12-19T07:51:13;101647.80;;;-4.68
68952;BMP180;56000;51.146;17.112;2022-12-19T07:53:46;101644.80;;;-4.30
68952;BMP180;56000;51.146;17.112;2022-12-19T07:56:19;101643.80;;;-3.90
68952;BMP180;56000;51.146;17.112;2022-12-19T07:58:53;101625.60;;;-3.60
68952;BMP180;56000;51.146;17.112;2022-12-19T08:01:26;101619.80;;;-3.20
68952;BMP180;56000;51.146;17.112;2022-12-19T08:04:00;101612.80;;;-2.84
68952;BMP180;56000;51.146;17.112;2022-12-19T08:06:33;101630.60;;;-2.54
68952;BMP180;56000;51.146;17.112;2022-12-19T08:09:11;101637.20;;;-2.50
68952;BMP180;56000;51.146;17.112;2022-12-19T08:11:44;101634.40;;;-2.30
68952;BMP180;56000;51.146;17.112;2022-12-19T08:14:18;101623.40;;;-2.02
68952;BMP180;56000;51.146;17.112;2022-12-19T08:16:51;101612.20;;;-1.80
68952;BMP180;56000;51.146;17.112;2022-12-19T08:19:44;101603.80;;;-1.48
68952;BMP180;56000;51.146;17.112;2022-12-19T08:22:17;101603.60;;;-1.14
68952;BMP180;56000;51.146;17.112;2022-12-19T08:24:50;101610.80;;;-0.80
68952;BMP180;56000;51.146;17.112;2022-12-19T08:27:22;101595.20;;;-0.50
68952;BMP180;56000;51.146;17.112;2022-12-19T08:29:55;101601.80;;;-0.10
68952;BMP180;56000;51.146;17.112;2022-12-19T08:32:28;101598.80;;;0.10
68952;BMP180;56000;51.146;17.112;2022-12-19T08:35:01;101586.60;;;0.16
68952;BMP180;56000;51.146;17.112;2022-12-19T08:37:38;101586.20;;;0.10
68952;BMP180;56000;51.146;17.112;2022-12-19T08:40:13;101581.20;;;0.14
68952;BMP180;56000;51.146;17.112;2022-12-19T08:42:46;101572.20;;;0.24
68952;BMP180;56000;51.146;17.112;2022-12-19T08:45:19;101567.00;;;0.30
68952;BMP180;56000;51.146;17.112;2022-12-19T08:47:52;101567.60;;;0.30
68952;BMP180;56000;51.146;17.112;2022-12-19T08:50:27;101569.20;;;0.10
68952;BMP180;56000;51.146;17.112;2022-12-19T08:53:00;101567.20;;;-0.10
68952;BMP180;56000;51.146;17.112;2022-12-19T08:55:35;101566.60;;;-0.40
68952;BMP180;56000;51.146;17.112;2022-12-19T08:58:08;101561.80;;;-0.50
68952;BMP180;56000;51.146;17.112;2022-12-19T09:00:41;101569.00;;;-0.60
68952;BMP180;56000;51.146;17.112;2022-12-19T09:03:24;101570.80;;;-0.50
68952;BMP180;56000;51.146;17.112;2022-12-19T09:06:16;101567.00;;;-0.18
68952;BMP180;56000;51.146;17.112;2022-12-19T09:08:50;101561.40;;;0.48
68952;BMP180;56000;51.146;17.112;2022-12-19T09:11:30;101561.40;;;1.34
68952;BMP180;56000;51.146;17.112;2022-12-19T09:14:05;101543.40;;;2.18
68952;BMP180;56000;51.146;17.112;2022-12-19T09:16:39;101537.20;;;2.50
68952;BMP180;56000;51.146;17.112;2022-12-19T09:19:12;101542.00;;;3.12
68952;BMP180;56000;51.146;17.112;2022-12-19T09:21:47;101542.60;;;3.70
68952;BMP180;56000;51.146;17.112;2022-12-19T09:24:19;101538.60;;;4.26
68952;BMP180;56000;51.146;17.112;2022-12-19T09:26:52;101528.80;;;4.82
68952;BMP180;56000;51.146;17.112;2022-12-19T09:29:26;101525.00;;;5.20
68952;BMP180;56000;51.146;17.112;2022-12-19T09:32:06;101525.40;;;5.46
68952;BMP180;56000;51.146;17.112;2022-12-19T09:34:40;101518.40;;;5.78
68952;BMP180;56000;51.146;17.112;2022-12-19T09:37:13;101519.60;;;6.12
68952;BMP180;56000;51.146;17.112;2022-12-19T09:39:48;101510.00;;;6.34
68952;BMP180;56000;51.146;17.112;2022-12-19T09:42:51;101511.00;;;6.50
68952;BMP180;56000;51.146;17.112;2022-12-19T09:45:47;101509.40;;;6.80
68952;BMP180;56000;51.146;17.112;2022-12-19T09:48:24;101503.00;;;7.20
68952;BMP180;56000;51.146;17.112;2022-12-19T09:51:00;101499.40;;;7.66
68952;BMP180;56000;51.146;17.112;2022-12-19T09:53:56;101485.60;;;8.00
68952;BMP180;56000;51.146;17.112;2022-12-19T09:56:35;101479.20;;;8.16
68952;BMP180;56000;51.146;17.112;2022-12-19T09:59:24;101478.60;;;8.30
68952;BMP180;56000;51.146;17.112;2022-12-19T10:02:28;101473.80;;;8.30
68952;BMP180;56000;51.146;17.112;2022-12-19T10:05:14;101478.60;;;8.30
68952;BMP180;56000;51.146;17.112;2022-12-19T10:08:16;101467.00;;;8.50
68952;BMP180;56000;51.146;17.112;2022-12-19T10:11:03;101468.00;;;8.60
68952;BMP180;56000;51.146;17.112;2022-12-19T10:14:15;101472.00;;;8.60
68952;BMP180;56000;51.146;17.112;2022-12-19T10:17:01;101457.40;;;7.80
68952;BMP180;56000;51.146;17.112;2022-12-19T10:20:17;101463.40;;;6.84
68952;BMP180;56000;51.146;17.112;2022-12-19T10:23:06;101461.20;;;5.66
68952;BMP180;56000;51.146;17.112;2022-12-19T10:25:53;101458.60;;;4.76
68952;BMP180;56000;51.146;17.112;2022-12-19T10:28:46;101447.40;;;4.16
68952;BMP180;56000;51.146;17.112;2022-12-19T10:31:28;101451.20;;;3.60
68952;BMP180;56000;51.146;17.112;2022-12-19T10:34:11;101453.00;;;3.14
68952;BMP180;56000;51.146;17.112;2022-12-19T10:36:51;101448.00;;;2.76
68952;BMP180;56000;51.146;17.112;2022-12-19T10:39:55;101452.40;;;2.50
68952;BMP180;56000;51.146;17.112;2022-12-19T10:42:43;101451.80;;;2.28
68952;BMP180;56000;51.146;17.112;2022-12-19T10:45:21;101440.20;;;2.10
68952;BMP180;56000;51.146;17.112;2022-12-19T10:47:57;101445.00;;;2.00
68952;BMP180;56000;51.146;17.112;2022-12-19T10:50:31;101449.20;;;2.00
68952;BMP180;56000;51.146;17.112;2022-12-19T10:53:11;101448.20;;;2.10
68952;BMP180;56000;51.146;17.112;2022-12-19T10:55:47;101434.80;;;2.20
68952;BMP180;56000;51.146;17.112;2022-12-19T10:58:27;101432.80;;;2.30
68952;BMP180;56000;51.146;17.112;2022-12-19T11:01:14;101431.80;;;2.30
68952;BMP180;56000;51.146;17.112;2022-12-19T11:04:16;101433.20;;;2.40
68952;BMP180;56000;51.146;17.112;2022-12-19T11:07:01;101439.40;;;2.60
68952;BMP180;56000;51.146;17.112;2022-12-19T11:09:40;101425.60;;;2.88
68952;BMP180;56000;51.146;17.112;2022-12-19T11:12:34;101424.00;;;3.10
68952;BMP180;56000;51.146;17.112;2022-12-19T11:15:27;101408.60;;;3.40
68952;BMP180;56000;51.146;17.112;2022-12-19T11:18:32;101407.40;;;3.50
68952;BMP180;56000;51.146;17.112;2022-12-19T11:21:29;101407.80;;;3.50
68952;BMP180;56000;51.146;17.112;2022-12-19T11:24:26;101397.00;;;3.40
68952;BMP180;56000;51.146;17.112;2022-12-19T11:27:39;101389.60;;;3.40
68952;BMP180;56000;51.146;17.112;2022-12-19T11:30:35;101380.40;;;3.32
68952;BMP180;56000;51.146;17.112;2022-12-19T11:33:28;101380.80;;;3.30
68952;BMP180;56000;51.146;17.112;2022-12-19T11:36:03;101378.60;;;3.20
68952;BMP180;56000;51.146;17.112;2022-12-19T11:38:47;101377.20;;;3.16
68952;BMP180;56000;51.146;17.112;2022-12-19T11:41:33;101373.20;;;3.10
68952;BMP180;56000;51.146;17.112;2022-12-19T11:44:15;101365.80;;;3.10
68952;BMP180;56000;51.146;17.112;2022-12-19T11:46:58;101360.00;;;3.20
68952;BMP180;56000;51.146;17.112;2022-12-19T11:49:39;101356.40;;;3.10
68952;BMP180;56000;51.146;17.112;2022-12-19T11:52:22;101366.20;;;3.16
68952;BMP180;56000;51.146;17.112;2022-12-19T11:55:24;101351.00;;;3.10
68952;BMP180;56000;51.146;17.112;2022-12-19T11:57:58;101348.20;;;3.20
68952;BMP180;56000;51.146;17.112;2022-12-19T12:00:33;101341.80;;;3.20
68952;BMP180;56000;51.146;17.112;2022-12-19T12:03:40;101331.40;;;3.10
68952;BMP180;56000;51.146;17.112;2022-12-19T12:06:36;101328.20;;;3.00
68952;BMP180;56000;51.146;17.112;2022-12-19T12:09:29;101322.60;;;3.00
68952;BMP180;56000;51.146;17.112;2022-12-19T12:12:29;101325.80;;;3.10
68952;BMP180;56000;51.146;17.112;2022-12-19T12:15:44;101326.40;;;3.20
68952;BMP180;56000;51.146;17.112;2022-12-19T12:18:55;101326.20;;;3.20
68952;BMP180;56000;51.146;17.112;2022-12-19T12:22:04;101342.40;;;3.18
68952;BMP180;56000;51.146;17.112;2022-12-19T12:25:17;101342.40;;;3.10
68952;BMP180;56000;51.146;17.112;2022-12-19T12:28:42;101333.60;;;3.00
68952;BMP180;56000;51.146;17.112;2022-12-19T12:31:48;101342.40;;;2.98
68952;BMP180;56000;51.146;17.112;2022-12-19T12:34:57;101348.80;;;2.90
68952;BMP180;56000;51.146;17.112;2022-12-19T12:38:06;101338.80;;;2.96
68952;BMP180;56000;51.146;17.112;2022-12-19T12:41:10;101329.00;;;3.00
68952;BMP180;56000;51.146;17.112;2022-12-19T12:44:05;101321.20;;;3.00
68952;BMP180;56000;51.146;17.112;2022-12-19T12:46:41;101310.60;;;3.10
68952;BMP180;56000;51.146;17.112;2022-12-19T12:49:36;101304.00;;;3.10
68952;BMP180;56000;51.146;17.112;2022-12-19T12:52:14;101306.80;;;3.20
68952;BMP180;56000;51.146;17.112;2022-12-19T12:54:50;101299.80;;;3.20
68952;BMP180;56000;51.146;17.112;2022-12-19T12:57:38;101292.60;;;3.24
68952;BMP180;56000;51.146;17.112;2022-12-19T13:00:24;101293.60;;;3.30
68952;BMP180;56000;51.146;17.112;2022-12-19T13:03:04;101285.20;;;3.34
68952;BMP180;56000;51.146;17.112;2022-12-19T13:05:52;101278.00;;;3.40
68952;BMP180;56000;51.146;17.112;2022-12-19T13:08:43;101271.40;;;3.40
68952;BMP180;56000;51.146;17.112;2022-12-19T13:11:36;101263.60;;;3.40
68952;BMP180;56000;51.146;17.112;2022-12-19T13:14:49;101253.60;;;3.30
68952;BMP180;56000;51.146;17.112;2022-12-19T13:18:00;101260.40;;;3.30
68952;BMP180;56000;51.146;17.112;2022-12-19T13:20:46;101272.60;;;3.20
68952;BMP180;56000;51.146;17.112;2022-12-19T13:23:42;101268.40;;;3.20
68952;BMP180;56000;51.146;17.112;2022-12-19T13:26:47;101268.80;;;3.10
68952;BMP180;56000;51.146;17.112;2022-12-19T13:29:53;101271.80;;;3.04
68952;BMP180;56000;51.146;17.112;2022-12-19T13:32:34;101274.20;;;3.00
68952;BMP180;56000;51.146;17.112;2022-12-19T13:35:35;101273.80;;;2.90
68952;BMP180;56000;51.146;17.112;2022-12-19T13:38:28;101282.60;;;2.80
68952;BMP180;56000;51.146;17.112;2022-12-19T13:41:40;101284.40;;;2.70
68952;BMP180;56000;51.146;17.112;2022-12-19T13:44:32;101283.00;;;2.60
68952;BMP180;56000;51.146;17.112;2022-12-19T13:47:08;101281.60;;;2.50
68952;BMP180;56000;51.146;17.112;2022-12-19T13:49:44;101291.20;;;2.44
68952;BMP180;56000;51.146;17.112;2022-12-19T13:52:17;101281.20;;;2.40
68952;BMP180;56000;51.146;17.112;2022-12-19T13:54:54;101271.00;;;2.30
68952;BMP180;56000;51.146;17.112;2022-12-19T13:57:30;101270.60;;;2.20
68952;BMP180;56000;51.146;17.112;2022-12-19T14:00:09;101266.20;;;2.10
68952;BMP180;56000;51.146;17.112;2022-12-19T14:02:51;101260.20;;;2.00
68952;BMP180;56000;51.146;17.112;2022-12-19T14:05:30;101261.00;;;1.90
68952;BMP180;56000;51.146;17.112;2022-12-19T14:08:25;101258.60;;;1.80
68952;BMP180;56000;51.146;17.112;2022-12-19T14:11:00;101257.20;;;1.80
68952;BMP180;56000;51.146;17.112;2022-12-19T14:13:56;101259.80;;;1.70
68952;BMP180;56000;51.146;17.112;2022-12-19T14:16:56;101258.40;;;1.62
68952;BMP180;56000;51.146;17.112;2022-12-19T14:19:42;101250.00;;;1.60
68952;BMP180;56000;51.146;17.112;2022-12-19T14:22:21;101249.40;;;1.50
68952;BMP180;56000;51.146;17.112;2022-12-19T14:24:59;101252.60;;;1.50
68952;BMP180;56000;51.146;17.112;2022-12-19T14:27:56;101258.00;;;1.50
68952;BMP180;56000;51.146;17.112;2022-12-19T14:30:56;101265.20;;;1.42
68952;BMP180;56000;51.146;17.112;2022-12-19T14:33:34;101269.80;;;1.40
68952;BMP180;56000;51.146;17.112;2022-12-19T14:36:27;101264.60;;;1.40
68952;BMP180;56000;51.146;17.112;2022-12-19T14:39:01;101256.80;;;1.40
68952;BMP180;56000;51.146;17.112;2022-12-19T14:42:02;101259.00;;;1.32
68952;BMP180;56000;51.146;17.112;2022-12-19T14:45:39;101261.40;;;1.30
68952;BMP180;56000;51.146;17.112;2022-12-19T14:48:43;101262.60;;;1.30
68952;BMP180;56000;51.146;17.112;2022-12-19T14:51:39;101260.40;;;1.20
68952;BMP180;56000;51.146;17.112;2022-12-19T14:54:33;101265.20;;;1.20
68952;BMP180;56000;51.146;17.112;2022-12-19T14:57:26;101256.60;;;1.20
68952;BMP180;56000;51.146;17.112;2022-12-19T15:00:30;101247.60;;;1.12
68952;BMP180;56000;51.146;17.112;2022-12-19T15:03:27;101250.20;;;1.10
68952;BMP180;56000;51.146;17.112;2022-12-19T15:06:14;101253.40;;;1.10
68952;BMP180;56000;51.146;17.112;2022-12-19T15:09:12;101241.00;;;1.06
68952;BMP180;56000;51.146;17.112;2022-12-19T15:12:14;101242.00;;;1.00
68952;BMP180;56000;51.146;17.112;2022-12-19T15:15:38;101230.60;;;1.00